Terminal Aerodrome Forecast
Issued by NWS

Home | Current Version | Previous Version | Text Only | Print | Product List | Glossary On
Versions: 1 2 3 4 5 6 7 8 9 10 11 12 13 14 15 16 17 18 19 20 21 22 23 24 25 26
000
FTUS45 KGJT 021740
TAFRIL
TAF
KRIL 021740Z 0218/0318 00000KT P6SM SCT120 BKN150
     FM022000 09006KT P6SM VCTS SCT080CB BKN110
     FM030100 13008G15KT P6SM VCTS SCT070CB OVC100
     FM030500 17005KT P6SM VCSH SCT060 OVC100
     FM031200 VRB03KT P6SM SCT060 OVC120=

USA.gov is the U.S. government's official web portal to all federal, state and local government web resources and services.